Time;durP1;ratioP1;P1;durP2;ratioP2;P2;SDS_P1;SDS_P2;PMS_P1;PMS_P2;Temp;Humidity;BMP_temperature;BMP_pressure;BME280_temperature;BME280_humidity;BME280_pressure;Samples;Min_cycle;Max_cycle;Signal;HPM_P1;HPM_P2
2022/02/14 00:00:20;;;;;;;9.90;3.97;;;8.80;31.20;;;;;;5055395;28;20401;-72
2022/02/14 00:02:47;;;;;;;10.50;4.20;;;8.80;31.50;;;;;;5055379;28;20471;-72
2022/02/14 00:05:13;;;;;;;5.43;3.40;;;8.80;31.50;;;;;;5058935;28;20199;-73
2022/02/14 00:07:39;;;;;;;8.10;2.93;;;8.80;32.10;;;;;;5072225;28;20417;-73
2022/02/14 00:10:06;;;;;;;8.53;4.43;;;8.90;31.30;;;;;;5064729;28;20421;-74
2022/02/14 00:12:33;;;;;;;11.07;3.97;;;8.90;31.60;;;;;;5055190;28;20442;-73
2022/02/14 00:14:58;;;;;;;5.50;3.23;;;9.00;31.50;;;;;;5054669;28;20537;-74
2022/02/14 00:17:24;;;;;;;7.80;3.50;;;9.00;31.90;;;;;;5055806;28;20445;-73
2022/02/14 00:19:52;;;;;;;7.17;4.17;;;9.00;31.60;;;;;;5054906;28;20163;-73
2022/02/14 00:22:21;;;;;;;7.63;3.80;;;9.10;31.00;;;;;;5055084;28;20530;-73
2022/02/14 00:24:48;;;;;;;8.43;3.27;;;9.00;31.60;;;;;;5055092;28;20421;-74
2022/02/14 00:27:14;;;;;;;8.25;4.53;;;9.00;31.40;;;;;;5053675;28;20889;-74
2022/02/14 00:29:46;;;;;;;20.77;4.00;;;9.00;31.70;;;;;;5054596;28;20171;-74
2022/02/14 00:32:12;;;;;;;8.20;3.43;;;9.00;32.00;;;;;;5054592;28;20207;-74
2022/02/14 00:34:38;;;;;;;13.50;4.10;;;9.00;31.40;;;;;;5054401;28;20589;-73
2022/02/14 00:37:04;;;;;;;12.05;5.18;;;8.90;31.60;;;;;;5053488;28;20382;-73
2022/02/14 00:39:29;;;;;;;8.85;4.43;;;8.90;31.80;;;;;;5053022;28;20408;-73
2022/02/14 00:41:55;;;;;;;14.40;4.67;;;9.00;31.90;;;;;;5053370;28;20464;-73
2022/02/14 00:44:21;;;;;;;8.60;4.45;;;8.90;31.70;;;;;;5053161;28;20405;-73
2022/02/14 00:46:47;;;;;;;9.05;4.10;;;9.00;32.20;;;;;;5052930;28;20382;-73
2022/02/14 00:49:13;;;;;;;11.15;5.05;;;9.00;32.10;;;;;;5053021;28;20397;-73
2022/02/14 00:51:38;;;;;;;12.87;3.73;;;9.00;32.00;;;;;;5054465;28;20273;-73
2022/02/14 00:54:04;;;;;;;11.23;3.83;;;9.00;31.90;;;;;;5055582;28;20202;-73
2022/02/14 00:56:29;;;;;;;10.10;3.90;;;9.00;31.90;;;;;;5064441;28;20181;-73
2022/02/14 00:58:55;;;;;;;13.00;3.07;;;9.00;31.80;;;;;;5062262;28;20257;-72
2022/02/14 01:01:21;;;;;;;6.00;3.70;;;9.00;32.70;;;;;;5055743;28;20563;-74
2022/02/14 01:03:47;;;;;;;7.60;2.73;;;9.00;32.50;;;;;;5055590;28;20652;-73
2022/02/14 01:06:12;;;;;;;15.37;4.80;;;9.00;32.70;;;;;;5056214;28;20178;-74
2022/02/14 01:08:38;;;;;;;7.70;3.77;;;8.90;32.60;;;;;;5053784;28;20385;-73
2022/02/14 01:11:04;;;;;;;4.80;3.17;;;8.90;33.30;;;;;;5053532;28;20410;-73
2022/02/14 01:13:30;;;;;;;8.48;4.20;;;8.90;32.90;;;;;;5052532;28;20417;-73
2022/02/14 01:15:55;;;;;;;8.13;4.05;;;8.90;33.00;;;;;;5052129;28;20448;-74
2022/02/14 01:18:21;;;;;;;5.93;3.67;;;8.90;33.00;;;;;;5053525;28;20235;-73
2022/02/14 01:20:47;;;;;;;10.20;4.40;;;8.90;33.20;;;;;;5052970;28;20401;-74
2022/02/14 01:23:12;;;;;;;8.70;4.60;;;8.90;33.10;;;;;;5052497;28;20530;-74
2022/02/14 01:25:40;;;;;;;7.87;3.73;;;9.00;32.90;;;;;;5051075;28;20393;-74
2022/02/14 01:28:06;;;;;;;17.90;3.93;;;8.90;33.60;;;;;;5053431;28;20578;-74
2022/02/14 01:30:33;;;;;;;7.20;3.50;;;8.90;33.40;;;;;;5045542;28;21009;-74
2022/02/14 01:33:00;;;;;;;16.80;3.77;;;8.90;34.10;;;;;;5052252;28;20214;-74
2022/02/14 01:35:28;;;;;;;6.47;3.63;;;8.90;33.30;;;;;;5053270;28;20951;-74
2022/02/14 01:37:54;;;;;;;7.23;4.57;;;8.90;34.10;;;;;;5032792;28;20470;-73
2022/02/14 01:40:20;;;;;;;7.03;3.97;;;8.90;33.90;;;;;;5032106;28;20789;-73
2022/02/14 01:42:46;;;;;;;7.82;4.00;;;8.90;34.40;;;;;;5031735;28;20384;-73
2022/02/14 01:45:12;;;;;;;7.30;3.80;;;9.00;33.40;;;;;;5046840;28;20958;-73
2022/02/14 01:47:40;;;;;;;13.40;3.83;;;9.00;33.60;;;;;;5053549;28;20260;-74
2022/02/14 01:50:07;;;;;;;8.75;4.18;;;9.10;33.30;;;;;;5052884;28;20395;-74
2022/02/14 01:52:35;;;;;;;8.13;3.80;;;9.00;33.40;;;;;;5051818;28;20435;-74
2022/02/14 01:55:05;;;;;;;10.57;4.03;;;9.10;34.00;;;;;;5051644;28;20394;-74
2022/02/14 01:57:30;;;;;;;14.00;4.60;;;9.10;33.10;;;;;;5051208;28;20393;-74
2022/02/14 01:59:58;;;;;;;8.07;4.20;;;9.00;33.40;;;;;;5060833;28;20393;-74
2022/02/14 02:02:24;;;;;;;7.30;3.50;;;9.00;33.90;;;;;;5052688;28;20204;-74
2022/02/14 02:04:49;;;;;;;7.47;3.10;;;9.00;33.50;;;;;;5052545;28;20421;-74
2022/02/14 02:07:15;;;;;;;4.60;3.50;;;9.00;34.10;;;;;;5052600;28;20210;-74
2022/02/14 02:09:45;;;;;;;13.20;3.70;;;9.00;34.30;;;;;;5052512;28;20171;-74
2022/02/14 02:12:25;;;;;;;6.20;3.03;;;9.00;33.60;;;;;;5060413;28;20549;-74
2022/02/14 02:14:59;;;;;;;5.10;3.70;;;8.90;34.40;;;;;;5066007;28;20426;-74
2022/02/14 02:17:30;;;;;;;4.43;3.30;;;8.80;34.10;;;;;;5054048;28;20807;-74
2022/02/14 02:19:56;;;;;;;9.97;3.03;;;8.80;34.40;;;;;;5054169;28;20825;-74
2022/02/14 02:22:21;;;;;;;6.70;3.60;;;8.80;34.10;;;;;;5053157;28;20441;-75
2022/02/14 02:24:48;;;;;;;7.07;4.33;;;8.80;34.30;;;;;;5052268;28;20468;-74
2022/02/14 02:27:14;;;;;;;8.23;3.50;;;8.80;35.10;;;;;;5051610;28;20393;-75
2022/02/14 02:29:40;;;;;;;14.02;4.00;;;8.80;33.90;;;;;;5051360;28;20933;-75
2022/02/14 02:32:07;;;;;;;11.27;3.90;;;8.80;34.20;;;;;;5052221;28;20707;-75
2022/02/14 02:34:38;;;;;;;8.23;3.93;;;8.80;34.30;;;;;;5051881;28;21064;-75
2022/02/14 02:37:05;;;;;;;9.07;3.80;;;8.80;34.80;;;;;;5050960;28;20397;-75
2022/02/14 02:39:31;;;;;;;9.37;4.80;;;8.70;34.40;;;;;;5052144;28;20202;-75
2022/02/14 02:41:58;;;;;;;13.77;4.37;;;8.70;35.00;;;;;;5051936;28;20790;-74
2022/02/14 02:44:24;;;;;;;14.80;3.70;;;8.70;34.50;;;;;;5053442;28;20401;-75
2022/02/14 02:46:50;;;;;;;9.75;4.13;;;8.70;35.00;;;;;;5054880;28;20385;-75
2022/02/14 02:49:17;;;;;;;11.77;4.47;;;8.70;35.30;;;;;;5051193;28;20427;-73
2022/02/14 02:51:48;;;;;;;7.97;4.00;;;8.80;35.00;;;;;;5050205;28;20393;-73
2022/02/14 02:54:14;;;;;;;10.88;4.55;;;8.80;34.60;;;;;;5051181;28;20400;-72
2022/02/14 02:56:42;;;;;;;12.25;4.15;;;8.90;34.60;;;;;;5050941;28;20393;-74
2022/02/14 02:59:08;;;;;;;11.80;4.30;;;8.90;35.70;;;;;;5051537;28;20402;-74
2022/02/14 03:01:34;;;;;;;10.18;3.97;;;9.00;34.00;;;;;;5058867;28;20893;-73
2022/02/14 03:04:06;;;;;;;12.20;4.30;;;9.00;34.50;;;;;;5071399;28;20391;-73
2022/02/14 03:06:32;;;;;;;10.30;3.90;;;9.00;33.60;;;;;;5064354;28;20403;-74
2022/02/14 03:08:58;;;;;;;11.68;4.63;;;9.00;33.70;;;;;;5080740;28;20400;-73
2022/02/14 03:11:24;;;;;;;6.57;4.00;;;8.90;34.00;;;;;;5066077;28;20385;-74
2022/02/14 03:13:50;;;;;;;6.47;3.88;;;8.90;34.40;;;;;;5050830;28;20749;-74
2022/02/14 03:16:16;;;;;;;11.82;4.18;;;8.90;34.30;;;;;;5051028;28;20389;-74
2022/02/14 03:18:42;;;;;;;9.27;4.13;;;8.90;34.30;;;;;;5050204;28;20779;-74
2022/02/14 03:21:08;;;;;;;7.35;4.13;;;8.90;34.00;;;;;;5049423;28;20381;-74
2022/02/14 03:23:34;;;;;;;10.30;4.00;;;9.00;33.70;;;;;;5051130;28;20381;-73
2022/02/14 03:26:00;;;;;;;6.60;3.20;;;8.90;34.60;;;;;;5047636;28;20219;-73
2022/02/14 03:28:26;;;;;;;11.73;3.40;;;8.90;34.30;;;;;;5034375;28;20409;-73
2022/02/14 03:30:53;;;;;;;4.60;3.43;;;8.80;34.10;;;;;;5052356;28;20187;-74
2022/02/14 03:33:19;;;;;;;4.77;3.13;;;8.90;34.70;;;;;;5051904;28;20433;-74
2022/02/14 03:35:45;;;;;;;12.35;4.55;;;8.90;34.10;;;;;;5050675;28;20755;-74
2022/02/14 03:38:10;;;;;;;;;;;8.90;34.20;;;;;;5052112;28;20025;-74
2022/02/14 03:40:37;;;;;;;9.10;4.22;;;8.90;34.40;;;;;;5056858;28;20409;-74
2022/02/14 03:43:10;;;;;;;13.13;4.05;;;8.90;34.40;;;;;;5050916;28;20389;-74
2022/02/14 03:45:36;;;;;;;;;;;8.80;34.40;;;;;;5052120;28;20026;-74
2022/02/14 03:48:02;;;;;;;9.43;3.60;;;8.80;34.80;;;;;;5050287;28;20473;-74
2022/02/14 03:50:28;;;;;;;7.13;3.88;;;8.80;34.70;;;;;;5050585;28;20424;-74
2022/02/14 03:52:54;;;;;;;11.40;4.10;;;8.80;34.90;;;;;;5050552;28;20400;-74
2022/02/14 03:55:22;;;;;;;8.95;4.00;;;8.80;34.70;;;;;;5051301;28;20492;-74
2022/02/14 03:57:50;;;;;;;8.00;4.10;;;8.80;35.90;;;;;;5052902;28;20513;-74
2022/02/14 04:00:17;;;;;;;5.57;4.00;;;8.80;34.80;;;;;;5071343;28;20407;-74
2022/02/14 04:02:43;;;;;;;9.27;3.80;;;8.80;35.20;;;;;;5072343;28;20391;-74
2022/02/14 04:05:10;;;;;;;7.20;3.80;;;8.80;35.50;;;;;;5065852;28;20402;-74
2022/02/14 04:07:36;;;;;;;7.80;3.80;;;8.70;35.40;;;;;;5053243;28;20395;-74
2022/02/14 04:10:03;;;;;;;8.40;4.00;;;8.70;35.60;;;;;;5053850;28;20389;-74
2022/02/14 04:12:29;;;;;;;6.53;3.80;;;8.80;36.70;;;;;;5053244;28;20396;-73
2022/02/14 04:14:54;;;;;;;8.10;3.67;;;8.80;35.50;;;;;;5052742;28;20385;-74
2022/02/14 04:17:20;;;;;;;11.25;3.45;;;8.80;35.20;;;;;;5053240;28;20491;-74
2022/02/14 04:19:45;;;;;;;8.90;4.10;;;8.90;35.20;;;;;;5053232;28;20413;-74
2022/02/14 04:22:11;;;;;;;6.63;2.40;;;8.90;34.80;;;;;;5054653;28;20199;-74
2022/02/14 04:24:36;;;;;;;10.77;2.80;;;9.00;35.30;;;;;;5055144;28;20168;-75
2022/02/14 04:27:02;;;;;;;7.03;2.40;;;9.00;36.20;;;;;;5067062;28;20175;-75
2022/02/14 04:29:28;;;;;;;5.90;3.23;;;9.00;35.40;;;;;;5057194;28;20542;-75
2022/02/14 04:31:53;;;;;;;8.20;2.90;;;8.90;35.00;;;;;;5054128;28;20211;-74
2022/02/14 04:34:21;;;;;;;5.80;2.30;;;9.00;34.90;;;;;;5054278;28;20177;-74
2022/02/14 04:36:49;;;;;;;8.07;2.97;;;9.00;35.30;;;;;;5053826;28;20201;-74
2022/02/14 04:39:15;;;;;;;29.20;3.67;;;9.10;34.50;;;;;;5053957;28;20463;-73
2022/02/14 04:41:41;;;;;;;8.07;3.40;;;9.10;35.10;;;;;;5040262;28;20444;-74
2022/02/14 04:44:07;;;;;;;5.70;3.50;;;9.10;34.30;;;;;;5061028;28;20503;-75
2022/02/14 04:46:32;;;;;;;5.43;2.17;;;9.10;35.20;;;;;;5054041;28;20402;-75
2022/02/14 04:48:58;;;;;;;5.40;2.87;;;9.00;34.50;;;;;;5054480;28;20421;-74
2022/02/14 04:51:25;;;;;;;5.57;2.37;;;9.10;34.90;;;;;;5054647;28;20192;-75
2022/02/14 04:53:52;;;;;;;5.30;2.80;;;9.00;35.10;;;;;;5049818;28;20430;-75
2022/02/14 04:56:18;;;;;;;2.70;2.50;;;9.10;34.90;;;;;;5072066;28;20478;-75
2022/02/14 04:58:44;;;;;;;3.93;2.30;;;9.10;35.20;;;;;;5073625;28;20917;-74
2022/02/14 05:01:10;;;;;;;6.10;2.20;;;9.10;35.70;;;;;;5073936;28;20516;-75
2022/02/14 05:03:35;;;;;;;5.37;2.70;;;9.10;35.40;;;;;;5059340;28;20423;-74
2022/02/14 05:06:01;;;;;;;9.27;2.50;;;9.10;35.30;;;;;;5053867;28;20428;-74
2022/02/14 05:08:26;;;;;;;2.43;2.23;;;9.20;34.80;;;;;;5053738;28;20234;-74
2022/02/14 05:10:52;;;;;;;3.73;2.30;;;9.20;35.30;;;;;;5057917;28;20365;-74
2022/02/14 05:13:17;;;;;;;2.90;2.20;;;9.20;34.50;;;;;;5053897;28;20228;-74
2022/02/14 05:15:43;;;;;;;4.57;2.83;;;9.20;34.40;;;;;;5051276;28;20175;-74
2022/02/14 05:18:08;;;;;;;4.00;2.20;;;9.30;34.30;;;;;;5052318;28;20208;-74
2022/02/14 05:20:34;;;;;;;10.10;2.70;;;9.40;34.10;;;;;;5053383;28;20617;-74
2022/02/14 05:23:00;;;;;;;6.50;2.43;;;9.50;34.90;;;;;;5052833;28;20188;-73
2022/02/14 05:25:25;;;;;;;6.93;2.00;;;9.50;33.80;;;;;;5053173;28;20192;-74
2022/02/14 05:27:51;;;;;;;5.30;2.20;;;9.50;34.20;;;;;;5053083;28;20174;-74
2022/02/14 05:30:17;;;;;;;4.30;2.50;;;9.60;33.60;;;;;;5053833;28;20162;-73
2022/02/14 05:32:42;;;;;;;3.50;2.50;;;9.60;33.90;;;;;;5053492;28;21086;-73
2022/02/14 05:35:08;;;;;;;5.50;2.20;;;9.70;34.20;;;;;;5053638;28;20291;-73
2022/02/14 05:37:34;;;;;;;3.20;2.80;;;9.70;33.60;;;;;;5059223;28;20197;-73
2022/02/14 05:39:59;;;;;;;3.77;2.57;;;9.60;34.10;;;;;;5053847;28;20546;-74
2022/02/14 05:42:26;;;;;;;3.27;2.50;;;9.60;33.70;;;;;;5053718;28;20222;-73
2022/02/14 05:44:52;;;;;;;5.07;2.10;;;9.70;33.50;;;;;;5053721;28;20182;-74
2022/02/14 05:47:18;;;;;;;6.57;2.57;;;9.70;34.40;;;;;;5053481;28;20418;-74
2022/02/14 05:49:43;;;;;;;6.57;2.80;;;9.70;34.00;;;;;;5057615;28;20423;-75
2022/02/14 05:52:09;;;;;;;3.80;2.17;;;9.70;34.40;;;;;;5073673;28;20188;-74
2022/02/14 05:54:35;;;;;;;2.97;2.07;;;9.70;34.40;;;;;;5073062;28;20182;-74
2022/02/14 05:57:01;;;;;;;7.57;2.90;;;9.70;34.00;;;;;;5052386;28;20183;-74
2022/02/14 05:59:27;;;;;;;3.50;2.10;;;9.60;34.30;;;;;;5052613;28;20927;-74
2022/02/14 06:01:53;;;;;;;5.00;2.40;;;9.50;35.10;;;;;;5052745;28;20770;-74
2022/02/14 06:04:18;;;;;;;5.93;2.20;;;9.40;35.50;;;;;;5052733;28;20433;-74
2022/02/14 06:06:44;;;;;;;2.90;1.93;;;9.30;36.10;;;;;;5051658;28;20180;-74
2022/02/14 06:09:11;;;;;;;7.40;3.53;;;9.40;35.90;;;;;;5046127;28;20271;-74
2022/02/14 06:11:37;;;;;;;5.00;2.43;;;9.30;36.00;;;;;;5052852;28;20212;-74
2022/02/14 06:14:02;;;;;;;3.90;2.23;;;9.40;36.20;;;;;;5053479;28;20413;-74
2022/02/14 06:16:28;;;;;;;12.83;2.73;;;9.30;36.40;;;;;;5053082;28;20183;-74
2022/02/14 06:18:54;;;;;;;7.47;3.10;;;9.40;36.50;;;;;;5064820;28;20252;-74
2022/02/14 06:21:19;;;;;;;14.50;2.57;;;9.40;36.60;;;;;;5054312;28;20610;-75
2022/02/14 06:23:45;;;;;;;1.93;1.83;;;9.40;36.80;;;;;;5052525;28;20166;-74
2022/02/14 06:26:11;;;;;;;2.00;1.87;;;9.40;36.80;;;;;;5052018;28;20165;-74
2022/02/14 06:28:40;;;;;;;5.80;2.70;;;9.40;36.50;;;;;;5051783;28;20177;-76
2022/02/14 06:31:07;;;;;;;5.10;2.10;;;9.50;36.30;;;;;;5054841;28;20778;-73
2022/02/14 06:33:33;;;;;;;3.33;2.00;;;9.50;36.30;;;;;;5060539;28;20504;-74
2022/02/14 06:35:59;;;;;;;8.60;2.60;;;9.40;37.00;;;;;;5067265;28;20439;-73
2022/02/14 06:38:25;;;;;;;4.23;2.73;;;9.40;36.80;;;;;;5061432;28;20470;-74
2022/02/14 06:40:50;;;;;;;4.93;2.50;;;9.40;37.70;;;;;;5053523;28;20275;-74
2022/02/14 06:43:16;;;;;;;3.10;2.60;;;9.30;37.60;;;;;;5052595;28;20607;-74
2022/02/14 06:45:42;;;;;;;4.80;3.50;;;9.30;37.80;;;;;;5062623;28;20728;-72
2022/02/14 06:48:07;;;;;;;5.20;2.00;;;9.40;37.80;;;;;;5072631;28;20182;-74
2022/02/14 06:50:33;;;;;;;10.93;2.30;;;9.50;37.60;;;;;;5070733;28;20177;-74
2022/02/14 06:52:58;;;;;;;4.47;2.00;;;9.50;37.70;;;;;;5055190;28;20201;-73
2022/02/14 06:55:26;;;;;;;3.10;2.23;;;9.60;38.00;;;;;;5053393;28;20601;-73
2022/02/14 06:57:52;;;;;;;13.27;3.03;;;9.60;38.00;;;;;;5052820;28;20279;-73
2022/02/14 07:00:17;;;;;;;9.70;2.80;;;9.60;37.50;;;;;;5054680;28;20928;-72
2022/02/14 07:02:43;;;;;;;8.73;3.07;;;9.70;37.50;;;;;;5055717;28;20597;-73
2022/02/14 07:05:11;;;;;;;6.43;2.20;;;9.70;37.60;;;;;;5053525;28;20504;-74
2022/02/14 07:07:37;;;;;;;4.70;2.30;;;9.70;37.60;;;;;;5052210;28;20173;-74
2022/02/14 07:10:03;;;;;;;4.80;2.77;;;9.70;38.30;;;;;;5051871;28;20971;-73
2022/02/14 07:12:29;;;;;;;3.73;2.77;;;9.70;38.10;;;;;;5051914;28;20527;-73
2022/02/14 07:14:54;;;;;;;10.73;3.07;;;9.70;38.20;;;;;;5052520;28;20435;-73
2022/02/14 07:17:20;;;;;;;4.50;2.50;;;9.80;38.10;;;;;;5051798;28;20217;-73
2022/02/14 07:19:46;;;;;;;7.30;2.20;;;9.70;38.30;;;;;;5050040;28;20266;-73
2022/02/14 07:22:12;;;;;;;3.70;2.40;;;9.80;38.60;;;;;;5051508;28;20439;-73
2022/02/14 07:24:37;;;;;;;3.90;2.87;;;9.90;38.50;;;;;;5051746;28;20173;-73
2022/02/14 07:27:03;;;;;;;5.60;3.00;;;9.80;38.60;;;;;;5051190;28;20209;-73
2022/02/14 07:29:28;;;;;;;7.77;2.40;;;9.90;38.60;;;;;;5051917;28;20695;-73
2022/02/14 07:31:54;;;;;;;4.77;3.33;;;9.90;39.30;;;;;;5049229;28;20248;-73
2022/02/14 07:34:20;;;;;;;7.17;2.30;;;10.00;38.60;;;;;;5050535;28;20181;-75
2022/02/14 07:36:45;;;;;;;6.17;2.70;;;10.00;38.20;;;;;;5050311;28;20188;-75
2022/02/14 07:39:14;;;;;;;3.80;2.33;;;10.10;38.50;;;;;;5051427;28;20213;-74
2022/02/14 07:41:39;;;;;;;5.27;3.13;;;10.10;38.50;;;;;;5054391;28;20230;-74
2022/02/14 07:44:06;;;;;;;8.30;2.10;;;10.20;38.30;;;;;;5042360;28;20994;-75
2022/02/14 07:46:32;;;;;;;6.57;2.50;;;10.20;38.50;;;;;;5053262;28;20185;-75
2022/02/14 07:48:58;;;;;;;4.20;2.20;;;10.30;38.10;;;;;;5056086;28;20438;-74
2022/02/14 07:51:25;;;;;;;9.30;2.20;;;10.30;38.60;;;;;;5054031;28;20419;-75
2022/02/14 07:53:50;;;;;;;5.30;1.67;;;10.30;39.10;;;;;;5054135;28;20556;-73
2022/02/14 07:56:16;;;;;;;8.90;2.60;;;10.40;38.60;;;;;;5055370;28;20450;-74
2022/02/14 07:58:42;;;;;;;8.80;2.53;;;10.50;38.70;;;;;;5052060;28;20288;-75
2022/02/14 08:01:09;;;;;;;4.40;2.07;;;10.70;38.70;;;;;;5054502;28;20615;-74
2022/02/14 08:03:35;;;;;;;3.30;2.73;;;10.80;38.30;;;;;;5054771;28;20433;-74
2022/02/14 08:06:01;;;;;;;8.47;2.20;;;10.80;38.70;;;;;;5051983;28;20756;-77
2022/02/14 08:08:27;;;;;;;1.87;1.77;;;10.80;38.80;;;;;;5054248;28;20197;-75
2022/02/14 08:10:53;;;;;;;5.70;2.17;;;10.80;38.90;;;;;;5058116;28;20428;-75
2022/02/14 08:13:19;;;;;;;4.67;1.83;;;10.90;38.90;;;;;;5073626;28;20241;-74
2022/02/14 08:15:45;;;;;;;4.40;2.20;;;10.90;39.40;;;;;;5061611;28;20436;-74
2022/02/14 08:18:11;;;;;;;6.90;2.13;;;11.00;38.50;;;;;;5053544;28;20456;-75
2022/02/14 08:20:37;;;;;;;2.20;2.00;;;11.10;38.40;;;;;;5053969;28;20178;-74
2022/02/14 08:23:04;;;;;;;3.33;1.70;;;11.10;38.40;;;;;;5049264;28;20468;-74
2022/02/14 08:25:32;;;;;;;4.63;2.40;;;11.20;38.30;;;;;;5053136;28;20421;-73
2022/02/14 08:27:59;;;;;;;7.37;2.83;;;11.40;37.60;;;;;;5052389;28;20552;-73
2022/02/14 08:30:25;;;;;;;6.07;2.33;;;11.40;37.60;;;;;;5054904;28;20630;-73
2022/02/14 08:32:51;;;;;;;2.27;1.70;;;11.60;37.60;;;;;;5053850;28;20679;-74
2022/02/14 08:35:17;;;;;;;4.27;2.20;;;11.60;36.80;;;;;;5053213;28;20926;-75
2022/02/14 08:37:44;;;;;;;4.00;2.10;;;11.70;36.20;;;;;;5053071;28;20236;-74
2022/02/14 08:40:12;;;;;;;9.50;3.57;;;11.80;36.30;;;;;;5056549;28;20524;-72
2022/02/14 08:42:38;;;;;;;13.97;2.00;;;11.70;36.60;;;;;;5068568;28;20957;-75
2022/02/14 08:45:04;;;;;;;3.27;1.77;;;11.70;37.10;;;;;;5068272;28;20428;-75
2022/02/14 08:47:29;;;;;;;6.47;1.80;;;11.90;36.20;;;;;;5051903;28;20187;-75
2022/02/14 08:49:55;;;;;;;4.50;2.17;;;12.10;35.70;;;;;;5064464;28;20497;-74
2022/02/14 08:52:21;;;;;;;7.73;2.00;;;12.20;35.30;;;;;;5059386;28;20339;-74
2022/02/14 08:54:46;;;;;;;4.63;1.53;;;12.30;35.80;;;;;;5054010;28;20258;-73
2022/02/14 08:57:12;;;;;;;1.57;1.47;;;12.50;34.90;;;;;;5058132;28;20194;-73
2022/02/14 08:59:38;;;;;;;3.33;1.97;;;12.60;34.30;;;;;;5060249;28;20274;-74
2022/02/14 09:02:05;;;;;;;4.73;1.90;;;12.70;34.20;;;;;;5057076;28;20518;-75
2022/02/14 09:04:31;;;;;;;9.40;1.90;;;12.80;34.20;;;;;;5057152;28;20180;-74
2022/02/14 09:06:56;;;;;;;2.40;1.60;;;12.90;33.70;;;;;;5048616;28;20441;-74
2022/02/14 09:09:22;;;;;;;1.57;1.43;;;12.90;33.80;;;;;;5051522;28;20483;-71
2022/02/14 09:11:48;;;;;;;4.43;1.47;;;12.80;33.90;;;;;;5052880;28;20202;-76
2022/02/14 09:14:14;;;;;;;3.07;1.90;;;12.80;34.20;;;;;;5054848;28;20433;-73
2022/02/14 09:16:39;;;;;;;3.47;1.67;;;12.80;33.80;;;;;;5051301;28;20947;-74
2022/02/14 09:19:05;;;;;;;6.77;1.27;;;12.70;34.30;;;;;;5047856;28;20211;-73
2022/02/14 09:21:31;;;;;;;6.43;2.13;;;12.80;34.40;;;;;;5046691;28;20211;-73
2022/02/14 09:23:56;;;;;;;3.73;1.87;;;13.00;33.80;;;;;;5047044;28;20188;-74
2022/02/14 09:26:23;;;;;;;2.17;1.27;;;13.10;33.60;;;;;;5048986;28;20184;-73
2022/02/14 09:28:49;;;;;;;3.07;1.37;;;13.10;33.60;;;;;;5049475;28;20811;-76
2022/02/14 09:31:14;;;;;;;4.37;1.90;;;13.10;33.80;;;;;;5046874;28;20417;-74
2022/02/14 09:33:40;;;;;;;4.03;1.93;;;13.00;33.90;;;;;;5046047;28;20429;-75
2022/02/14 09:36:06;;;;;;;6.60;1.70;;;12.90;34.10;;;;;;5048098;28;20426;-75
2022/02/14 09:38:32;;;;;;;4.07;1.47;;;12.90;34.30;;;;;;5048763;28;20207;-77
2022/02/14 09:40:59;;;;;;;1.77;1.60;;;12.80;34.70;;;;;;5049012;28;20719;-74
2022/02/14 09:43:25;;;;;;;2.83;1.20;;;12.70;35.20;;;;;;5047378;28;20942;-75
2022/02/14 09:45:51;;;;;;;3.73;1.70;;;12.70;35.30;;;;;;5048250;28;20439;-76
2022/02/14 09:48:20;;;;;;;2.50;1.90;;;12.80;35.30;;;;;;5048864;28;20524;-76
2022/02/14 09:50:46;;;;;;;3.73;2.70;;;12.80;35.30;;;;;;5043191;28;20195;-76
2022/02/14 09:53:15;;;;;;;3.63;1.20;;;12.70;36.00;;;;;;5048107;28;20449;-77
2022/02/14 09:55:44;;;;;;;4.10;1.30;;;12.60;36.40;;;;;;5056710;28;20425;-76
2022/02/14 09:58:10;;;;;;;1.93;1.20;;;12.50;37.00;;;;;;5054988;28;20519;-76
2022/02/14 10:00:36;;;;;;;9.53;0.97;;;12.50;37.70;;;;;;5056123;28;20405;-76
2022/02/14 10:03:08;;;;;;;2.37;1.10;;;12.50;38.40;;;;;;5055138;28;20417;-76
2022/02/14 10:05:44;;;;;;;1.37;1.00;;;12.50;38.70;;;;;;5052845;28;20444;-74
2022/02/14 10:08:10;;;;;;;1.60;1.37;;;12.70;38.30;;;;;;5051020;28;20426;-76
2022/02/14 10:10:37;;;;;;;1.63;1.10;;;12.70;38.20;;;;;;5052488;28;21020;-75
2022/02/14 10:13:03;;;;;;;2.70;1.50;;;12.70;38.70;;;;;;5053162;28;20745;-74
2022/02/14 10:15:29;;;;;;;2.63;1.57;;;12.60;38.90;;;;;;5048031;28;20528;-75
2022/02/14 10:17:59;;;;;;;3.67;1.30;;;12.60;39.20;;;;;;5051023;28;20421;-75
2022/02/14 10:20:26;;;;;;;8.80;1.27;;;12.90;38.30;;;;;;5052946;28;20183;-75
2022/02/14 10:22:56;;;;;;;1.73;1.10;;;13.00;36.80;;;;;;5049340;28;20488;-74
2022/02/14 10:25:37;;;;;;;2.33;1.17;;;13.00;36.30;;;;;;5054825;28;20433;-75
2022/02/14 10:28:20;;;;;;;2.30;1.57;;;13.10;35.40;;;;;;5051610;28;20438;-74
2022/02/14 10:31:09;;;;;;;6.77;1.57;;;13.30;35.00;;;;;;5039234;28;20803;-74
2022/02/14 10:33:55;;;;;;;3.23;1.10;;;13.40;34.30;;;;;;5049364;28;20434;-76
2022/02/14 10:36:36;;;;;;;7.10;1.37;;;13.50;33.40;;;;;;5041784;28;20493;-75
2022/02/14 10:39:16;;;;;;;3.13;1.17;;;13.20;32.70;;;;;;5050800;28;20464;-75
2022/02/14 10:41:45;;;;;;;4.23;1.30;;;13.10;33.60;;;;;;5045750;28;20499;-76
2022/02/14 10:45:07;;;;;;;4.07;1.13;;;13.00;34.20;;;;;;5052180;28;20421;-74
2022/02/14 10:47:06;;;;;;;1.60;1.10;;;12.80;34.00;;;;;;5047550;28;20506;-75
2022/02/14 10:49:32;;;;;;;3.60;1.50;;;12.40;31.40;;;;;;5053887;28;20395;-74
2022/02/14 10:52:06;;;;;;;1.20;1.00;;;12.30;31.00;;;;;;5054650;28;20206;-72
2022/02/14 10:54:41;;;;;;;1.63;1.00;;;12.40;31.00;;;;;;5049185;28;20178;-73
2022/02/14 10:57:06;;;;;;;;;;;12.80;29.80;;;;;;5049126;28;20302;-73
2022/02/14 10:59:33;;;;;;;;;;;12.80;29.10;;;;;;5050422;28;19920;-75
2022/02/14 11:01:59;;;;;;;;;;;12.90;28.70;;;;;;5051221;28;20012;-74
2022/02/14 11:04:24;;;;;;;1.10;1.00;;;12.80;29.40;;;;;;5046375;28;20493;-73
2022/02/14 11:06:50;;;;;;;2.70;1.48;;;12.70;30.20;;;;;;5049241;28;20478;-75
2022/02/14 11:09:17;;;;;;;1.98;1.40;;;12.60;30.80;;;;;;5051713;28;20420;-77
2022/02/14 11:11:46;;;;;;;10.77;1.50;;;12.70;30.50;;;;;;5047398;28;20417;-74
2022/02/14 11:14:12;;;;;;;7.68;1.42;;;12.60;29.60;;;;;;5042022;28;20408;-73
2022/02/14 11:16:41;;;;;;;1.88;1.15;;;12.40;30.40;;;;;;5053511;28;20809;-75
2022/02/14 11:19:10;;;;;;;2.90;1.30;;;12.10;30.90;;;;;;5050406;28;20413;-74
2022/02/14 11:21:36;;;;;;;3.70;1.27;;;11.90;31.20;;;;;;5047977;28;20395;-74
2022/02/14 11:24:15;;;;;;;2.97;1.17;;;12.00;31.30;;;;;;5042140;28;20627;-74
2022/02/14 11:26:57;;;;;;;2.03;1.03;;;12.00;30.60;;;;;;5046067;28;20431;-75
2022/02/14 11:29:42;;;;;;;1.40;1.30;;;12.10;30.50;;;;;;5044794;28;20407;-74
2022/02/14 11:32:21;;;;;;;3.65;1.10;;;12.20;30.60;;;;;;5041448;28;20454;-74
2022/02/14 11:35:17;;;;;;;3.65;1.10;;;12.50;30.30;;;;;;5046839;28;20497;-73
2022/02/14 11:37:59;;;;;;;2.78;1.20;;;12.70;28.60;;;;;;5045777;28;20410;-74
2022/02/14 11:40:31;;;;;;;2.03;1.00;;;12.90;27.90;;;;;;5053154;28;20399;-74
2022/02/14 11:43:10;;;;;;;2.10;1.10;;;13.10;26.00;;;;;;5049512;28;20394;-74
2022/02/14 11:45:37;;;;;;;2.45;1.17;;;13.10;26.10;;;;;;5053487;28;20389;-74
2022/02/14 11:48:26;;;;;;;2.20;1.00;;;13.20;25.50;;;;;;5048199;28;20870;-74
2022/02/14 11:51:16;;;;;;;1.70;1.00;;;13.50;24.70;;;;;;5042747;28;20389;-75
2022/02/14 11:53:45;;;;;;;11.27;1.40;;;13.50;24.60;;;;;;5051641;28;20400;-75
2022/02/14 11:56:22;;;;;;;3.70;1.30;;;13.40;24.80;;;;;;5052535;28;20484;-74
2022/02/14 11:59:16;;;;;;;2.20;1.05;;;13.20;25.20;;;;;;5045030;28;20968;-74
2022/02/14 12:01:44;;;;;;;4.20;1.45;;;12.90;26.50;;;;;;5045310;28;20918;-74
2022/02/14 12:04:29;;;;;;;4.30;1.20;;;13.10;26.70;;;;;;5048420;28;20390;-74
2022/02/14 12:07:16;;;;;;;6.30;1.70;;;13.30;25.50;;;;;;5044651;28;20460;-75
2022/02/14 12:09:57;;;;;;;3.63;0.93;;;13.20;25.10;;;;;;5044268;28;20397;-74
2022/02/14 12:13:03;;;;;;;4.55;1.30;;;13.10;24.90;;;;;;5045229;28;20389;-75
2022/02/14 12:21:06;;;;;;;2.90;1.00;;;13.00;24.40;;;;;;5046077;28;20751;-74
2022/02/14 12:23:37;;;;;;;4.10;1.40;;;12.90;24.50;;;;;;5044398;28;20398;-73
2022/02/14 12:26:07;;;;;;;5.10;1.20;;;12.80;25.00;;;;;;5047465;28;20404;-74
2022/02/14 12:28:34;;;;;;;4.68;1.20;;;12.60;25.60;;;;;;5047963;28;20405;-74
2022/02/14 12:31:00;;;;;;;4.87;1.30;;;12.50;26.70;;;;;;5046884;28;20973;-75
2022/02/14 12:33:27;;;;;;;3.67;1.30;;;12.30;27.30;;;;;;5052446;28;20486;-74
2022/02/14 12:35:57;;;;;;;3.75;1.40;;;12.30;27.70;;;;;;5049023;28;20496;-75
2022/02/14 12:38:49;;;;;;;5.70;1.40;;;12.30;27.70;;;;;;5054643;28;20413;-75
2022/02/14 12:41:14;;;;;;;2.08;1.17;;;12.50;28.30;;;;;;5054569;28;20417;-74
2022/02/14 12:43:45;;;;;;;3.45;1.13;;;12.60;27.10;;;;;;5054662;28;20451;-74
2022/02/14 12:46:15;;;;;;;4.40;1.17;;;13.00;25.70;;;;;;5049441;28;20484;-73
2022/02/14 12:48:43;;;;;;;3.78;1.30;;;13.10;25.40;;;;;;5048683;28;20419;-75
2022/02/14 12:51:12;;;;;;;1.60;1.13;;;13.20;24.80;;;;;;5047131;28;20425;-73
2022/02/14 12:53:40;;;;;;;4.63;1.50;;;13.50;24.10;;;;;;5050740;28;20397;-74
2022/02/14 12:56:20;;;;;;;3.55;1.20;;;13.60;23.00;;;;;;5042609;28;20459;-74
2022/02/14 12:58:53;;;;;;;3.72;1.50;;;13.50;22.30;;;;;;5053806;28;20420;-74
2022/02/14 13:01:21;;;;;;;4.68;1.30;;;13.70;21.80;;;;;;5051729;28;20397;-73